sensor_id;sensor_type;location;lat;lon;timestamp;P1;durP1;ratioP1;P2;durP2;ratioP2
17852;SDS011;9052;53.494;14.376;2023-05-14T00:02:09;19.60;;;13.03;;
17852;SDS011;9052;53.494;14.376;2023-05-14T00:04:37;24.70;;;13.40;;
17852;SDS011;9052;53.494;14.376;2023-05-14T00:07:05;19.70;;;13.60;;
17852;SDS011;9052;53.494;14.376;2023-05-14T00:09:31;20.90;;;13.50;;
17852;SDS011;9052;53.494;14.376;2023-05-14T00:11:59;26.93;;;12.37;;
17852;SDS011;9052;53.494;14.376;2023-05-14T00:14:26;19.70;;;13.70;;
17852;SDS011;9052;53.494;14.376;2023-05-14T00:16:52;15.07;;;13.10;;
17852;SDS011;9052;53.494;14.376;2023-05-14T00:19:19;23.00;;;13.40;;
17852;SDS011;9052;53.494;14.376;2023-05-14T00:21:47;20.40;;;14.17;;
17852;SDS011;9052;53.494;14.376;2023-05-14T00:24:13;15.27;;;13.10;;
17852;SDS011;9052;53.494;14.376;2023-05-14T00:26:40;18.63;;;13.40;;
17852;SDS011;9052;53.494;14.376;2023-05-14T00:29:06;22.73;;;13.93;;
17852;SDS011;9052;53.494;14.376;2023-05-14T00:31:33;18.07;;;13.10;;
17852;SDS011;9052;53.494;14.376;2023-05-14T00:34:00;13.97;;;12.30;;
17852;SDS011;9052;53.494;14.376;2023-05-14T00:36:26;20.47;;;15.70;;
17852;SDS011;9052;53.494;14.376;2023-05-14T00:38:54;17.40;;;14.20;;
17852;SDS011;9052;53.494;14.376;2023-05-14T00:41:21;30.73;;;17.87;;
17852;SDS011;9052;53.494;14.376;2023-05-14T00:43:48;36.93;;;20.10;;
17852;SDS011;9052;53.494;14.376;2023-05-14T00:46:14;22.83;;;17.73;;
17852;SDS011;9052;53.494;14.376;2023-05-14T00:48:41;32.03;;;17.50;;
17852;SDS011;9052;53.494;14.376;2023-05-14T00:51:08;24.73;;;17.50;;
17852;SDS011;9052;53.494;14.376;2023-05-14T00:53:35;28.70;;;17.97;;
17852;SDS011;9052;53.494;14.376;2023-05-14T00:56:04;33.70;;;18.60;;
17852;SDS011;9052;53.494;14.376;2023-05-14T00:58:31;24.47;;;16.70;;
17852;SDS011;9052;53.494;14.376;2023-05-14T01:00:57;35.43;;;17.23;;
17852;SDS011;9052;53.494;14.376;2023-05-14T01:03:24;25.00;;;17.70;;
17852;SDS011;9052;53.494;14.376;2023-05-14T01:05:52;21.37;;;16.00;;
17852;SDS011;9052;53.494;14.376;2023-05-14T01:08:24;22.60;;;13.27;;
17852;SDS011;9052;53.494;14.376;2023-05-14T01:10:52;16.23;;;12.70;;
17852;SDS011;9052;53.494;14.376;2023-05-14T01:13:24;21.47;;;14.30;;
17852;SDS011;9052;53.494;14.376;2023-05-14T01:15:52;20.40;;;14.23;;
17852;SDS011;9052;53.494;14.376;2023-05-14T01:18:21;19.60;;;13.77;;
17852;SDS011;9052;53.494;14.376;2023-05-14T01:20:48;19.20;;;15.03;;
17852;SDS011;9052;53.494;14.376;2023-05-14T01:23:17;28.37;;;18.13;;
17852;SDS011;9052;53.494;14.376;2023-05-14T01:25:43;30.23;;;16.00;;
17852;SDS011;9052;53.494;14.376;2023-05-14T01:28:11;23.00;;;14.47;;
17852;SDS011;9052;53.494;14.376;2023-05-14T01:30:52;24.57;;;14.00;;
17852;SDS011;9052;53.494;14.376;2023-05-14T01:33:19;23.63;;;16.10;;
17852;SDS011;9052;53.494;14.376;2023-05-14T01:35:47;24.90;;;15.07;;
17852;SDS011;9052;53.494;14.376;2023-05-14T01:38:14;22.97;;;15.43;;
17852;SDS011;9052;53.494;14.376;2023-05-14T01:40:44;18.00;;;13.30;;
17852;SDS011;9052;53.494;14.376;2023-05-14T01:43:11;27.20;;;14.37;;
17852;SDS011;9052;53.494;14.376;2023-05-14T01:45:38;27.30;;;13.43;;
17852;SDS011;9052;53.494;14.376;2023-05-14T01:48:05;19.73;;;12.50;;
17852;SDS011;9052;53.494;14.376;2023-05-14T01:50:32;17.70;;;13.57;;
17852;SDS011;9052;53.494;14.376;2023-05-14T01:52:58;34.70;;;13.83;;
17852;SDS011;9052;53.494;14.376;2023-05-14T01:55:27;16.97;;;12.67;;
17852;SDS011;9052;53.494;14.376;2023-05-14T01:57:55;15.20;;;10.87;;
17852;SDS011;9052;53.494;14.376;2023-05-14T02:00:23;15.70;;;12.23;;
17852;SDS011;9052;53.494;14.376;2023-05-14T02:02:50;14.43;;;12.00;;
17852;SDS011;9052;53.494;14.376;2023-05-14T02:05:17;14.10;;;10.93;;
17852;SDS011;9052;53.494;14.376;2023-05-14T02:07:43;13.07;;;11.50;;
17852;SDS011;9052;53.494;14.376;2023-05-14T02:10:10;19.07;;;12.80;;
17852;SDS011;9052;53.494;14.376;2023-05-14T02:12:37;15.70;;;12.10;;
17852;SDS011;9052;53.494;14.376;2023-05-14T02:15:05;21.43;;;13.10;;
17852;SDS011;9052;53.494;14.376;2023-05-14T02:17:33;16.27;;;12.13;;
17852;SDS011;9052;53.494;14.376;2023-05-14T02:19:59;20.33;;;13.37;;
17852;SDS011;9052;53.494;14.376;2023-05-14T02:22:26;19.20;;;12.07;;
17852;SDS011;9052;53.494;14.376;2023-05-14T02:24:52;16.53;;;11.70;;
17852;SDS011;9052;53.494;14.376;2023-05-14T02:30:09;19.53;;;12.43;;
17852;SDS011;9052;53.494;14.376;2023-05-14T02:32:36;19.07;;;12.37;;
17852;SDS011;9052;53.494;14.376;2023-05-14T02:35:04;13.83;;;12.00;;
17852;SDS011;9052;53.494;14.376;2023-05-14T02:37:30;18.77;;;12.77;;
17852;SDS011;9052;53.494;14.376;2023-05-14T02:39:58;15.40;;;12.23;;
17852;SDS011;9052;53.494;14.376;2023-05-14T02:42:25;13.63;;;12.20;;
17852;SDS011;9052;53.494;14.376;2023-05-14T02:44:51;19.47;;;12.67;;
17852;SDS011;9052;53.494;14.376;2023-05-14T02:47:19;25.00;;;11.97;;
17852;SDS011;9052;53.494;14.376;2023-05-14T02:49:46;17.60;;;11.97;;
17852;SDS011;9052;53.494;14.376;2023-05-14T02:52:12;21.57;;;14.30;;
17852;SDS011;9052;53.494;14.376;2023-05-14T02:54:39;11.80;;;10.60;;
17852;SDS011;9052;53.494;14.376;2023-05-14T02:57:05;14.30;;;10.90;;
17852;SDS011;9052;53.494;14.376;2023-05-14T02:59:32;13.50;;;10.37;;
17852;SDS011;9052;53.494;14.376;2023-05-14T03:01:58;15.17;;;11.73;;
17852;SDS011;9052;53.494;14.376;2023-05-14T03:04:27;14.00;;;11.43;;
17852;SDS011;9052;53.494;14.376;2023-05-14T03:06:53;20.20;;;11.33;;
17852;SDS011;9052;53.494;14.376;2023-05-14T03:09:20;16.10;;;12.83;;
17852;SDS011;9052;53.494;14.376;2023-05-14T03:11:46;13.90;;;11.30;;
17852;SDS011;9052;53.494;14.376;2023-05-14T03:14:13;16.33;;;11.87;;
17852;SDS011;9052;53.494;14.376;2023-05-14T03:16:39;20.10;;;12.00;;
17852;SDS011;9052;53.494;14.376;2023-05-14T03:19:06;22.93;;;12.40;;
17852;SDS011;9052;53.494;14.376;2023-05-14T03:21:35;24.07;;;11.93;;
17852;SDS011;9052;53.494;14.376;2023-05-14T03:24:02;18.13;;;13.50;;
17852;SDS011;9052;53.494;14.376;2023-05-14T03:26:28;19.33;;;13.83;;
17852;SDS011;9052;53.494;14.376;2023-05-14T03:28:55;21.73;;;13.07;;
17852;SDS011;9052;53.494;14.376;2023-05-14T03:31:21;23.63;;;13.67;;
17852;SDS011;9052;53.494;14.376;2023-05-14T03:33:48;20.27;;;12.70;;
17852;SDS011;9052;53.494;14.376;2023-05-14T03:36:15;21.03;;;13.43;;
17852;SDS011;9052;53.494;14.376;2023-05-14T03:38:43;21.03;;;12.63;;
17852;SDS011;9052;53.494;14.376;2023-05-14T03:41:09;14.63;;;11.10;;
17852;SDS011;9052;53.494;14.376;2023-05-14T03:43:36;14.70;;;12.60;;
17852;SDS011;9052;53.494;14.376;2023-05-14T03:46:02;15.40;;;12.37;;
17852;SDS011;9052;53.494;14.376;2023-05-14T03:48:29;23.70;;;10.97;;
17852;SDS011;9052;53.494;14.376;2023-05-14T03:50:56;18.47;;;12.13;;
17852;SDS011;9052;53.494;14.376;2023-05-14T03:53:22;15.30;;;11.73;;
17852;SDS011;9052;53.494;14.376;2023-05-14T03:55:50;18.47;;;11.57;;
17852;SDS011;9052;53.494;14.376;2023-05-14T03:58:17;17.37;;;11.83;;
17852;SDS011;9052;53.494;14.376;2023-05-14T04:00:43;20.73;;;10.57;;
17852;SDS011;9052;53.494;14.376;2023-05-14T04:03:10;15.87;;;10.10;;
17852;SDS011;9052;53.494;14.376;2023-05-14T04:05:36;18.67;;;10.67;;
17852;SDS011;9052;53.494;14.376;2023-05-14T04:08:03;16.13;;;10.13;;
17852;SDS011;9052;53.494;14.376;2023-05-14T04:10:30;14.37;;;10.90;;
17852;SDS011;9052;53.494;14.376;2023-05-14T04:12:58;12.90;;;10.07;;
17852;SDS011;9052;53.494;14.376;2023-05-14T04:15:24;16.73;;;11.27;;
17852;SDS011;9052;53.494;14.376;2023-05-14T04:17:51;20.87;;;11.90;;
17852;SDS011;9052;53.494;14.376;2023-05-14T04:20:18;18.63;;;11.33;;
17852;SDS011;9052;53.494;14.376;2023-05-14T04:22:44;29.40;;;10.83;;
17852;SDS011;9052;53.494;14.376;2023-05-14T04:25:11;14.43;;;10.63;;
17852;SDS011;9052;53.494;14.376;2023-05-14T04:27:38;10.43;;;9.07;;
17852;SDS011;9052;53.494;14.376;2023-05-14T04:30:08;16.47;;;10.30;;
17852;SDS011;9052;53.494;14.376;2023-05-14T04:32:35;12.90;;;10.10;;
17852;SDS011;9052;53.494;14.376;2023-05-14T04:35:02;17.50;;;11.23;;
17852;SDS011;9052;53.494;14.376;2023-05-14T04:37:28;16.30;;;10.70;;
17852;SDS011;9052;53.494;14.376;2023-05-14T04:39:55;12.97;;;10.60;;
17852;SDS011;9052;53.494;14.376;2023-05-14T04:42:22;14.03;;;10.50;;
17852;SDS011;9052;53.494;14.376;2023-05-14T04:44:49;15.67;;;10.17;;
17852;SDS011;9052;53.494;14.376;2023-05-14T04:47:17;12.40;;;11.20;;
17852;SDS011;9052;53.494;14.376;2023-05-14T04:49:45;10.83;;;9.53;;
17852;SDS011;9052;53.494;14.376;2023-05-14T04:52:11;16.70;;;11.00;;
17852;SDS011;9052;53.494;14.376;2023-05-14T04:54:38;15.33;;;9.60;;
17852;SDS011;9052;53.494;14.376;2023-05-14T04:57:05;11.17;;;10.00;;
17852;SDS011;9052;53.494;14.376;2023-05-14T04:59:32;11.60;;;10.20;;
17852;SDS011;9052;53.494;14.376;2023-05-14T05:01:58;14.80;;;10.03;;
17852;SDS011;9052;53.494;14.376;2023-05-14T05:04:26;11.17;;;10.10;;
17852;SDS011;9052;53.494;14.376;2023-05-14T05:06:53;12.07;;;10.77;;
17852;SDS011;9052;53.494;14.376;2023-05-14T05:09:19;17.40;;;9.50;;
17852;SDS011;9052;53.494;14.376;2023-05-14T05:11:46;11.63;;;9.43;;
17852;SDS011;9052;53.494;14.376;2023-05-14T05:14:13;13.00;;;9.70;;
17852;SDS011;9052;53.494;14.376;2023-05-14T05:16:39;13.60;;;8.13;;
17852;SDS011;9052;53.494;14.376;2023-05-14T05:19:06;14.67;;;9.07;;
17852;SDS011;9052;53.494;14.376;2023-05-14T05:21:34;17.13;;;8.57;;
17852;SDS011;9052;53.494;14.376;2023-05-14T05:24:03;15.40;;;9.20;;
17852;SDS011;9052;53.494;14.376;2023-05-14T05:26:30;10.30;;;8.43;;
17852;SDS011;9052;53.494;14.376;2023-05-14T05:28:56;10.43;;;9.03;;
17852;SDS011;9052;53.494;14.376;2023-05-14T05:31:23;10.53;;;8.73;;
17852;SDS011;9052;53.494;14.376;2023-05-14T05:33:50;14.13;;;7.70;;
17852;SDS011;9052;53.494;14.376;2023-05-14T05:36:16;7.90;;;7.10;;
17852;SDS011;9052;53.494;14.376;2023-05-14T05:38:44;11.13;;;6.40;;
17852;SDS011;9052;53.494;14.376;2023-05-14T05:41:11;12.80;;;6.90;;
17852;SDS011;9052;53.494;14.376;2023-05-14T05:43:37;7.23;;;6.40;;
17852;SDS011;9052;53.494;14.376;2023-05-14T05:46:04;6.57;;;5.77;;
17852;SDS011;9052;53.494;14.376;2023-05-14T05:48:31;8.60;;;6.60;;
17852;SDS011;9052;53.494;14.376;2023-05-14T05:50:57;8.37;;;6.57;;
17852;SDS011;9052;53.494;14.376;2023-05-14T05:53:24;16.70;;;6.80;;
17852;SDS011;9052;53.494;14.376;2023-05-14T05:55:52;9.10;;;6.00;;
17852;SDS011;9052;53.494;14.376;2023-05-14T05:58:18;10.37;;;5.70;;
17852;SDS011;9052;53.494;14.376;2023-05-14T06:00:45;11.43;;;6.57;;
17852;SDS011;9052;53.494;14.376;2023-05-14T06:03:12;8.27;;;6.00;;
17852;SDS011;9052;53.494;14.376;2023-05-14T06:05:38;11.40;;;5.90;;
17852;SDS011;9052;53.494;14.376;2023-05-14T06:08:05;6.93;;;5.13;;
17852;SDS011;9052;53.494;14.376;2023-05-14T06:10:32;5.93;;;5.40;;
17852;SDS011;9052;53.494;14.376;2023-05-14T06:13:00;7.17;;;5.53;;
17852;SDS011;9052;53.494;14.376;2023-05-14T06:15:26;8.00;;;6.10;;
17852;SDS011;9052;53.494;14.376;2023-05-14T06:17:53;13.33;;;5.60;;
17852;SDS011;9052;53.494;14.376;2023-05-14T06:20:20;11.30;;;5.90;;
17852;SDS011;9052;53.494;14.376;2023-05-14T06:22:46;7.20;;;5.27;;
17852;SDS011;9052;53.494;14.376;2023-05-14T06:25:13;11.03;;;5.53;;
17852;SDS011;9052;53.494;14.376;2023-05-14T06:27:39;9.60;;;6.17;;
17852;SDS011;9052;53.494;14.376;2023-05-14T06:30:08;24.97;;;5.93;;
17852;SDS011;9052;53.494;14.376;2023-05-14T06:32:35;5.90;;;5.30;;
17852;SDS011;9052;53.494;14.376;2023-05-14T06:35:02;9.13;;;6.00;;
17852;SDS011;9052;53.494;14.376;2023-05-14T06:37:29;5.77;;;5.20;;
17852;SDS011;9052;53.494;14.376;2023-05-14T06:39:55;12.93;;;5.93;;
17852;SDS011;9052;53.494;14.376;2023-05-14T06:42:22;8.00;;;5.17;;
17852;SDS011;9052;53.494;14.376;2023-05-14T06:44:49;8.17;;;5.77;;
17852;SDS011;9052;53.494;14.376;2023-05-14T06:47:17;7.93;;;5.33;;
17852;SDS011;9052;53.494;14.376;2023-05-14T06:49:43;5.90;;;5.30;;
17852;SDS011;9052;53.494;14.376;2023-05-14T06:52:10;14.47;;;5.53;;
17852;SDS011;9052;53.494;14.376;2023-05-14T06:54:37;7.93;;;5.53;;
17852;SDS011;9052;53.494;14.376;2023-05-14T06:57:03;8.73;;;5.97;;
17852;SDS011;9052;53.494;14.376;2023-05-14T06:59:30;9.20;;;4.47;;
17852;SDS011;9052;53.494;14.376;2023-05-14T07:01:57;6.50;;;4.77;;
17852;SDS011;9052;53.494;14.376;2023-05-14T07:04:25;9.43;;;4.70;;
17852;SDS011;9052;53.494;14.376;2023-05-14T07:06:51;7.70;;;4.97;;
17852;SDS011;9052;53.494;14.376;2023-05-14T07:09:19;9.27;;;5.57;;
17852;SDS011;9052;53.494;14.376;2023-05-14T07:11:46;9.50;;;5.60;;
17852;SDS011;9052;53.494;14.376;2023-05-14T07:14:13;7.13;;;5.70;;
17852;SDS011;9052;53.494;14.376;2023-05-14T07:16:40;20.53;;;5.10;;
17852;SDS011;9052;53.494;14.376;2023-05-14T07:19:06;13.83;;;5.63;;
17852;SDS011;9052;53.494;14.376;2023-05-14T07:21:34;8.63;;;5.77;;
17852;SDS011;9052;53.494;14.376;2023-05-14T07:24:01;7.70;;;5.73;;
17852;SDS011;9052;53.494;14.376;2023-05-14T07:26:28;9.73;;;6.33;;
17852;SDS011;9052;53.494;14.376;2023-05-14T07:28:55;6.27;;;5.10;;
17852;SDS011;9052;53.494;14.376;2023-05-14T07:31:22;11.33;;;5.47;;
17852;SDS011;9052;53.494;14.376;2023-05-14T07:33:49;7.07;;;5.00;;
17852;SDS011;9052;53.494;14.376;2023-05-14T07:36:15;6.77;;;4.73;;
17852;SDS011;9052;53.494;14.376;2023-05-14T07:38:43;7.60;;;4.73;;
17852;SDS011;9052;53.494;14.376;2023-05-14T07:41:11;11.50;;;5.53;;
17852;SDS011;9052;53.494;14.376;2023-05-14T07:43:38;6.30;;;3.97;;
17852;SDS011;9052;53.494;14.376;2023-05-14T07:46:05;6.23;;;4.60;;
17852;SDS011;9052;53.494;14.376;2023-05-14T07:48:31;9.90;;;5.37;;
17852;SDS011;9052;53.494;14.376;2023-05-14T07:50:58;14.30;;;5.20;;
17852;SDS011;9052;53.494;14.376;2023-05-14T07:53:25;7.67;;;4.10;;
17852;SDS011;9052;53.494;14.376;2023-05-14T07:55:53;5.97;;;4.60;;
17852;SDS011;9052;53.494;14.376;2023-05-14T07:58:21;6.63;;;4.10;;
17852;SDS011;9052;53.494;14.376;2023-05-14T08:00:49;6.47;;;4.20;;
17852;SDS011;9052;53.494;14.376;2023-05-14T08:03:15;8.40;;;4.07;;
17852;SDS011;9052;53.494;14.376;2023-05-14T08:05:42;7.03;;;4.07;;
17852;SDS011;9052;53.494;14.376;2023-05-14T08:08:09;8.47;;;4.77;;
17852;SDS011;9052;53.494;14.376;2023-05-14T08:10:36;5.53;;;4.10;;
17852;SDS011;9052;53.494;14.376;2023-05-14T08:13:04;10.23;;;4.00;;
17852;SDS011;9052;53.494;14.376;2023-05-14T08:15:31;5.53;;;3.80;;
17852;SDS011;9052;53.494;14.376;2023-05-14T08:17:57;5.90;;;4.10;;
17852;SDS011;9052;53.494;14.376;2023-05-14T08:20:27;6.50;;;4.30;;
17852;SDS011;9052;53.494;14.376;2023-05-14T08:22:54;4.93;;;4.30;;
17852;SDS011;9052;53.494;14.376;2023-05-14T08:25:21;5.47;;;4.17;;
17852;SDS011;9052;53.494;14.376;2023-05-14T08:27:48;6.63;;;3.47;;
17852;SDS011;9052;53.494;14.376;2023-05-14T08:30:16;14.47;;;4.17;;
17852;SDS011;9052;53.494;14.376;2023-05-14T08:32:43;6.20;;;3.70;;
17852;SDS011;9052;53.494;14.376;2023-05-14T08:35:09;7.70;;;5.30;;
17852;SDS011;9052;53.494;14.376;2023-05-14T08:37:37;9.40;;;5.00;;
17852;SDS011;9052;53.494;14.376;2023-05-14T08:40:04;6.77;;;4.33;;
17852;SDS011;9052;53.494;14.376;2023-05-14T08:42:32;7.57;;;4.87;;
17852;SDS011;9052;53.494;14.376;2023-05-14T08:45:00;6.60;;;4.37;;
17852;SDS011;9052;53.494;14.376;2023-05-14T08:47:29;11.70;;;4.27;;
17852;SDS011;9052;53.494;14.376;2023-05-14T08:50:00;21.57;;;4.70;;
17852;SDS011;9052;53.494;14.376;2023-05-14T08:52:28;18.00;;;4.43;;
17852;SDS011;9052;53.494;14.376;2023-05-14T08:54:55;5.30;;;4.80;;
17852;SDS011;9052;53.494;14.376;2023-05-14T08:57:22;10.73;;;5.33;;
17852;SDS011;9052;53.494;14.376;2023-05-14T08:59:50;8.27;;;4.73;;
17852;SDS011;9052;53.494;14.376;2023-05-14T09:02:17;8.50;;;4.67;;
17852;SDS011;9052;53.494;14.376;2023-05-14T09:04:48;4.80;;;4.30;;
17852;SDS011;9052;53.494;14.376;2023-05-14T09:07:16;7.60;;;4.83;;
17852;SDS011;9052;53.494;14.376;2023-05-14T09:09:42;8.03;;;5.10;;
17852;SDS011;9052;53.494;14.376;2023-05-14T09:12:10;10.87;;;4.63;;
17852;SDS011;9052;53.494;14.376;2023-05-14T09:14:36;6.30;;;5.20;;
17852;SDS011;9052;53.494;14.376;2023-05-14T09:17:03;6.60;;;5.83;;
17852;SDS011;9052;53.494;14.376;2023-05-14T09:19:30;8.60;;;4.97;;
17852;SDS011;9052;53.494;14.376;2023-05-14T09:21:58;5.40;;;4.90;;
17852;SDS011;9052;53.494;14.376;2023-05-14T09:24:25;10.10;;;5.33;;
17852;SDS011;9052;53.494;14.376;2023-05-14T09:26:53;13.80;;;4.43;;
17852;SDS011;9052;53.494;14.376;2023-05-14T09:29:20;9.10;;;5.37;;
17852;SDS011;9052;53.494;14.376;2023-05-14T09:31:47;12.33;;;5.50;;
17852;SDS011;9052;53.494;14.376;2023-05-14T09:34:22;12.00;;;5.07;;
17852;SDS011;9052;53.494;14.376;2023-05-14T09:36:49;7.83;;;5.80;;
17852;SDS011;9052;53.494;14.376;2023-05-14T09:39:17;20.47;;;5.60;;
17852;SDS011;9052;53.494;14.376;2023-05-14T09:41:44;8.57;;;5.43;;
17852;SDS011;9052;53.494;14.376;2023-05-14T09:44:10;23.23;;;5.10;;
17852;SDS011;9052;53.494;14.376;2023-05-14T09:46:37;8.27;;;5.03;;
17852;SDS011;9052;53.494;14.376;2023-05-14T09:49:04;8.70;;;4.40;;
17852;SDS011;9052;53.494;14.376;2023-05-14T09:51:30;5.13;;;4.40;;
17852;SDS011;9052;53.494;14.376;2023-05-14T09:53:57;7.90;;;4.33;;
17852;SDS011;9052;53.494;14.376;2023-05-14T09:56:25;5.97;;;4.27;;
17852;SDS011;9052;53.494;14.376;2023-05-14T09:58:53;6.33;;;4.20;;
17852;SDS011;9052;53.494;14.376;2023-05-14T10:01:19;4.77;;;3.77;;
17852;SDS011;9052;53.494;14.376;2023-05-14T10:03:47;6.83;;;4.10;;
17852;SDS011;9052;53.494;14.376;2023-05-14T10:06:15;7.93;;;5.30;;
17852;SDS011;9052;53.494;14.376;2023-05-14T10:08:43;9.47;;;4.47;;
17852;SDS011;9052;53.494;14.376;2023-05-14T10:11:11;8.70;;;3.77;;
17852;SDS011;9052;53.494;14.376;2023-05-14T10:13:40;5.37;;;3.93;;
17852;SDS011;9052;53.494;14.376;2023-05-14T10:16:07;14.57;;;5.00;;
17852;SDS011;9052;53.494;14.376;2023-05-14T10:18:38;10.70;;;3.70;;
17852;SDS011;9052;53.494;14.376;2023-05-14T10:21:06;7.47;;;4.70;;
17852;SDS011;9052;53.494;14.376;2023-05-14T10:23:33;4.90;;;4.20;;
17852;SDS011;9052;53.494;14.376;2023-05-14T10:26:02;8.60;;;4.73;;
17852;SDS011;9052;53.494;14.376;2023-05-14T10:28:28;9.00;;;3.93;;
17852;SDS011;9052;53.494;14.376;2023-05-14T10:30:59;7.50;;;3.63;;
17852;SDS011;9052;53.494;14.376;2023-05-14T10:33:26;9.50;;;3.97;;
17852;SDS011;9052;53.494;14.376;2023-05-14T10:35:57;28.13;;;4.23;;
17852;SDS011;9052;53.494;14.376;2023-05-14T10:38:25;9.50;;;4.60;;
17852;SDS011;9052;53.494;14.376;2023-05-14T10:40:53;5.33;;;3.10;;
17852;SDS011;9052;53.494;14.376;2023-05-14T10:43:20;5.93;;;3.30;;
17852;SDS011;9052;53.494;14.376;2023-05-14T10:45:47;12.43;;;4.40;;
17852;SDS011;9052;53.494;14.376;2023-05-14T10:48:15;7.47;;;3.63;;
17852;SDS011;9052;53.494;14.376;2023-05-14T10:50:43;10.90;;;3.80;;
17852;SDS011;9052;53.494;14.376;2023-05-14T10:53:12;10.13;;;3.97;;
17852;SDS011;9052;53.494;14.376;2023-05-14T10:55:38;10.00;;;4.27;;
17852;SDS011;9052;53.494;14.376;2023-05-14T10:58:05;4.23;;;3.70;;
17852;SDS011;9052;53.494;14.376;2023-05-14T11:00:32;10.60;;;4.57;;
17852;SDS011;9052;53.494;14.376;2023-05-14T11:02:59;7.43;;;4.67;;
17852;SDS011;9052;53.494;14.376;2023-05-14T11:05:27;11.70;;;3.83;;
17852;SDS011;9052;53.494;14.376;2023-05-14T11:07:54;7.30;;;3.80;;
17852;SDS011;9052;53.494;14.376;2023-05-14T11:10:23;5.47;;;3.43;;
17852;SDS011;9052;53.494;14.376;2023-05-14T11:12:52;7.70;;;3.43;;
17852;SDS011;9052;53.494;14.376;2023-05-14T11:15:19;27.93;;;4.43;;
17852;SDS011;9052;53.494;14.376;2023-05-14T11:17:48;6.63;;;3.73;;
17852;SDS011;9052;53.494;14.376;2023-05-14T11:20:15;14.87;;;4.10;;
17852;SDS011;9052;53.494;14.376;2023-05-14T11:22:43;6.50;;;3.80;;
17852;SDS011;9052;53.494;14.376;2023-05-14T11:25:10;9.00;;;5.30;;
17852;SDS011;9052;53.494;14.376;2023-05-14T11:27:39;12.50;;;6.13;;
17852;SDS011;9052;53.494;14.376;2023-05-14T11:30:10;9.77;;;5.80;;
17852;SDS011;9052;53.494;14.376;2023-05-14T11:32:37;6.30;;;5.53;;
17852;SDS011;9052;53.494;14.376;2023-05-14T11:35:05;13.03;;;6.17;;
17852;SDS011;9052;53.494;14.376;2023-05-14T11:37:31;13.93;;;5.80;;
17852;SDS011;9052;53.494;14.376;2023-05-14T11:40:00;9.00;;;5.70;;
17852;SDS011;9052;53.494;14.376;2023-05-14T11:42:26;6.17;;;4.93;;
17852;SDS011;9052;53.494;14.376;2023-05-14T11:44:53;5.03;;;4.60;;
17852;SDS011;9052;53.494;14.376;2023-05-14T11:47:20;6.17;;;4.17;;
17852;SDS011;9052;53.494;14.376;2023-05-14T11:49:46;6.20;;;4.20;;
17852;SDS011;9052;53.494;14.376;2023-05-14T11:52:14;4.87;;;3.63;;
17852;SDS011;9052;53.494;14.376;2023-05-14T11:54:43;10.83;;;4.10;;
17852;SDS011;9052;53.494;14.376;2023-05-14T11:57:11;3.97;;;3.50;;
17852;SDS011;9052;53.494;14.376;2023-05-14T11:59:38;4.60;;;3.50;;
17852;SDS011;9052;53.494;14.376;2023-05-14T12:02:07;4.57;;;3.97;;
17852;SDS011;9052;53.494;14.376;2023-05-14T12:04:35;3.87;;;3.50;;
17852;SDS011;9052;53.494;14.376;2023-05-14T12:07:06;4.47;;;3.23;;
17852;SDS011;9052;53.494;14.376;2023-05-14T12:09:34;4.20;;;3.80;;
17852;SDS011;9052;53.494;14.376;2023-05-14T12:12:06;4.93;;;4.43;;
17852;SDS011;9052;53.494;14.376;2023-05-14T12:14:35;5.13;;;3.43;;
17852;SDS011;9052;53.494;14.376;2023-05-14T12:17:02;5.00;;;3.93;;
17852;SDS011;9052;53.494;14.376;2023-05-14T12:19:29;9.67;;;4.23;;
17852;SDS011;9052;53.494;14.376;2023-05-14T12:21:55;10.93;;;3.47;;
17852;SDS011;9052;53.494;14.376;2023-05-14T12:24:26;11.97;;;3.57;;
17852;SDS011;9052;53.494;14.376;2023-05-14T12:26:54;3.67;;;2.90;;
17852;SDS011;9052;53.494;14.376;2023-05-14T12:29:24;6.43;;;2.93;;
17852;SDS011;9052;53.494;14.376;2023-05-14T12:31:55;5.70;;;3.60;;
17852;SDS011;9052;53.494;14.376;2023-05-14T12:34:22;3.77;;;3.30;;
17852;SDS011;9052;53.494;14.376;2023-05-14T12:36:49;3.80;;;3.23;;
17852;SDS011;9052;53.494;14.376;2023-05-14T12:39:16;5.83;;;3.73;;
17852;SDS011;9052;53.494;14.376;2023-05-14T12:41:42;4.93;;;3.70;;
17852;SDS011;9052;53.494;14.376;2023-05-14T12:44:09;7.83;;;3.07;;
17852;SDS011;9052;53.494;14.376;2023-05-14T12:46:36;4.53;;;4.07;;
17852;SDS011;9052;53.494;14.376;2023-05-14T12:49:04;11.13;;;3.70;;
17852;SDS011;9052;53.494;14.376;2023-05-14T12:51:31;6.70;;;3.40;;
17852;SDS011;9052;53.494;14.376;2023-05-14T12:53:57;4.13;;;3.20;;
17852;SDS011;9052;53.494;14.376;2023-05-14T12:56:24;5.77;;;3.47;;
17852;SDS011;9052;53.494;14.376;2023-05-14T12:58:53;9.93;;;3.60;;
17852;SDS011;9052;53.494;14.376;2023-05-14T13:01:19;5.77;;;4.17;;
17852;SDS011;9052;53.494;14.376;2023-05-14T13:03:47;19.83;;;7.60;;
17852;SDS011;9052;53.494;14.376;2023-05-14T13:06:15;23.93;;;7.10;;
17852;SDS011;9052;53.494;14.376;2023-05-14T13:08:42;6.57;;;4.20;;
17852;SDS011;9052;53.494;14.376;2023-05-14T13:11:08;5.00;;;3.80;;
17852;SDS011;9052;53.494;14.376;2023-05-14T13:13:35;8.77;;;4.80;;
17852;SDS011;9052;53.494;14.376;2023-05-14T13:16:01;3.83;;;3.53;;
17852;SDS011;9052;53.494;14.376;2023-05-14T13:18:28;13.73;;;4.63;;
17852;SDS011;9052;53.494;14.376;2023-05-14T13:20:55;11.83;;;4.10;;
17852;SDS011;9052;53.494;14.376;2023-05-14T13:23:23;3.00;;;2.80;;
17852;SDS011;9052;53.494;14.376;2023-05-14T13:25:49;7.87;;;3.30;;
17852;SDS011;9052;53.494;14.376;2023-05-14T13:28:16;3.90;;;3.50;;
17852;SDS011;9052;53.494;14.376;2023-05-14T13:30:43;3.80;;;3.00;;
17852;SDS011;9052;53.494;14.376;2023-05-14T13:33:28;16.53;;;3.30;;
17852;SDS011;9052;53.494;14.376;2023-05-14T13:35:54;13.43;;;3.50;;
17852;SDS011;9052;53.494;14.376;2023-05-14T13:38:23;3.23;;;3.00;;
17852;SDS011;9052;53.494;14.376;2023-05-14T13:40:49;3.33;;;3.03;;
17852;SDS011;9052;53.494;14.376;2023-05-14T13:43:16;5.83;;;3.80;;
17852;SDS011;9052;53.494;14.376;2023-05-14T13:45:43;3.80;;;3.50;;
17852;SDS011;9052;53.494;14.376;2023-05-14T13:48:09;4.33;;;3.00;;
17852;SDS011;9052;53.494;14.376;2023-05-14T13:50:36;4.17;;;3.80;;
17852;SDS011;9052;53.494;14.376;2023-05-14T13:53:03;3.57;;;3.00;;
17852;SDS011;9052;53.494;14.376;2023-05-14T13:55:31;3.50;;;3.30;;
17852;SDS011;9052;53.494;14.376;2023-05-14T13:57:57;56.60;;;4.40;;
17852;SDS011;9052;53.494;14.376;2023-05-14T14:00:24;3.90;;;3.50;;
17852;SDS011;9052;53.494;14.376;2023-05-14T14:02:51;5.20;;;3.20;;
17852;SDS011;9052;53.494;14.376;2023-05-14T14:05:18;12.13;;;3.50;;
17852;SDS011;9052;53.494;14.376;2023-05-14T14:07:44;43.50;;;3.90;;
17852;SDS011;9052;53.494;14.376;2023-05-14T14:10:11;4.40;;;3.23;;
17852;SDS011;9052;53.494;14.376;2023-05-14T14:12:39;3.80;;;3.40;;
17852;SDS011;9052;53.494;14.376;2023-05-14T14:15:06;12.30;;;3.63;;
17852;SDS011;9052;53.494;14.376;2023-05-14T14:17:33;4.13;;;3.03;;
17852;SDS011;9052;53.494;14.376;2023-05-14T14:19:59;3.90;;;3.33;;
17852;SDS011;9052;53.494;14.376;2023-05-14T14:22:26;3.57;;;3.20;;
17852;SDS011;9052;53.494;14.376;2023-05-14T14:24:52;3.60;;;3.30;;
17852;SDS011;9052;53.494;14.376;2023-05-14T14:27:19;4.90;;;4.30;;
17852;SDS011;9052;53.494;14.376;2023-05-14T14:29:48;6.87;;;3.60;;
17852;SDS011;9052;53.494;14.376;2023-05-14T14:32:14;5.67;;;3.93;;
17852;SDS011;9052;53.494;14.376;2023-05-14T14:34:41;5.40;;;3.57;;
17852;SDS011;9052;53.494;14.376;2023-05-14T14:37:08;30.17;;;5.00;;
17852;SDS011;9052;53.494;14.376;2023-05-14T14:39:34;6.93;;;3.67;;